Time;durP1;ratioP1;P1;durP2;ratioP2;P2;SDS_P1;SDS_P2;PMS_P1;PMS_P2;Temp;Humidity;BMP_temperature;BMP_pressure;BME280_temperature;BME280_humidity;BME280_pressure;Samples;Min_cycle;Max_cycle;Signal;HPM_P1;HPM_P2
2022/08/28 00:02:48;;;;;;;7.70;6.27;;;;;;;24.84;44.35;94903.41;6075476;28;103894;-79
2022/08/28 00:05:52;;;;;;;7.03;6.30;;;;;;;24.79;44.33;94911.66;6076312;28;104023;-79
2022/08/28 00:08:56;;;;;;;6.90;5.93;;;;;;;24.73;44.69;94918.31;6074485;28;105994;-79
2022/08/28 00:12:01;;;;;;;12.40;6.97;;;;;;;24.62;44.68;94914.41;6066649;28;105193;-80
2022/08/28 00:15:07;;;;;;;11.40;7.40;;;;;;;24.56;45.22;94915.72;6075231;28;104115;-80
2022/08/28 00:18:13;;;;;;;8.30;6.93;;;;;;;24.59;45.05;94915.06;6076175;28;103981;-80
2022/08/28 00:21:17;;;;;;;12.17;6.90;;;;;;;24.52;45.51;94918.22;6072736;28;104066;-79
2022/08/28 00:24:20;;;;;;;7.90;7.10;;;;;;;24.52;45.36;94917.44;6070889;28;104717;-78
2022/08/28 00:30:48;;;;;;;7.00;6.33;;;;;;;24.52;45.15;94915.56;6075963;28;103575;-79
2022/08/28 00:33:52;;;;;;;8.17;6.80;;;;;;;24.46;45.54;94914.19;6067801;28;104156;-79
2022/08/28 00:36:55;;;;;;;7.87;6.07;;;;;;;24.38;45.87;94913.13;6061637;28;103548;-79
2022/08/28 00:39:58;;;;;;;8.97;6.47;;;;;;;24.32;45.70;94911.75;6074977;28;102783;-80
2022/08/28 00:43:06;;;;;;;12.50;6.90;;;;;;;24.32;45.54;94913.63;6075822;28;103961;-79
2022/08/28 00:46:11;;;;;;;8.63;7.17;;;;;;;24.29;45.45;94915.06;6066032;28;104048;-79
2022/08/28 00:49:17;;;;;;;9.73;6.67;;;;;;;24.33;45.07;94909.84;6075448;28;103900;-79
2022/08/28 00:52:23;;;;;;;10.87;6.40;;;;;;;24.52;44.93;94912.88;6076278;28;104762;-79
2022/08/28 00:55:28;;;;;;;7.40;6.80;;;;;;;24.50;45.19;94909.75;6072885;28;103967;-80
2022/08/28 00:58:33;;;;;;;7.80;7.07;;;;;;;24.53;45.17;94908.31;6071754;28;104118;-79
2022/08/28 01:01:37;;;;;;;8.03;6.77;;;;;;;24.72;44.54;94906.03;6074862;28;103826;-79
2022/08/28 01:04:41;;;;;;;8.67;7.30;;;;;;;24.75;44.98;94908.84;6073534;28;104764;-80
2022/08/28 01:07:45;;;;;;;7.20;6.40;;;;;;;24.78;44.58;94910.84;6067607;28;104610;-79
2022/08/28 01:10:54;;;;;;;7.80;7.00;;;;;;;24.85;44.24;94915.69;6075847;28;103851;-79
2022/08/28 01:14:01;;;;;;;8.37;7.33;;;;;;;24.79;44.44;94922.34;6076375;28;104854;-79
2022/08/28 01:17:07;;;;;;;8.70;7.80;;;;;;;24.70;44.96;94917.06;6073450;28;106151;-80
2022/08/28 01:20:14;;;;;;;10.27;7.17;;;;;;;24.65;44.89;94916.44;6067896;28;104803;-77
2022/08/28 01:23:26;;;;;;;9.07;6.67;;;;;;;24.67;44.65;94908.84;6073822;28;107278;-79
2022/08/28 01:26:31;;;;;;;12.30;7.33;;;;;;;24.66;44.85;94916.09;6073256;28;104290;-78
2022/08/28 01:29:35;;;;;;;8.63;6.80;;;;;;;24.71;44.35;94915.19;6068746;28;104235;-77
2022/08/28 01:32:40;;;;;;;7.77;7.07;;;;;;;24.61;45.20;94915.50;6068538;28;103982;-79
2022/08/28 01:35:47;;;;;;;10.00;7.10;;;;;;;24.47;45.46;94916.53;6073146;28;103816;-77
2022/08/28 01:38:56;;;;;;;7.50;6.80;;;;;;;24.40;45.39;94921.63;6071582;28;103936;-78
2022/08/28 01:42:02;;;;;;;7.80;6.97;;;;;;;24.36;45.50;94927.91;6063976;28;103902;-78
2022/08/28 01:45:10;;;;;;;7.70;6.90;;;;;;;24.41;45.46;94917.84;6072099;28;104114;-78
2022/08/28 01:48:14;;;;;;;7.80;6.10;;;;;;;24.48;45.40;94918.09;6054923;28;103888;-78
2022/08/28 01:51:17;;;;;;;7.33;6.60;;;;;;;24.57;45.06;94917.28;6071273;28;104280;-76
2022/08/28 01:54:27;;;;;;;7.10;6.23;;;;;;;24.58;45.03;94922.31;6060385;28;103910;-76
2022/08/28 01:57:32;;;;;;;11.23;6.93;;;;;;;24.47;45.18;94921.88;6068706;28;105149;-78
2022/08/28 02:00:35;;;;;;;8.57;6.63;;;;;;;24.32;45.49;94919.75;6069011;28;103911;-76
2022/08/28 02:03:41;;;;;;;10.00;7.00;;;;;;;24.39;45.55;94924.63;6065672;28;104157;-76
2022/08/28 02:06:45;;;;;;;8.50;7.57;;;;;;;24.29;45.68;94927.66;6065849;28;103635;-76
2022/08/28 02:09:51;;;;;;;7.37;6.67;;;;;;;24.29;45.61;94920.41;6069211;28;103706;-76
2022/08/28 02:12:57;;;;;;;9.63;6.80;;;;;;;24.38;45.61;94925.72;6068493;28;104204;-75
2022/08/28 02:16:01;;;;;;;8.13;7.33;;;;;;;24.40;45.19;94918.94;6047729;28;104277;-76
2022/08/28 02:19:04;;;;;;;11.27;7.70;;;;;;;24.36;45.41;94928.72;6067488;28;103769;-77
2022/08/28 02:22:08;;;;;;;12.60;7.73;;;;;;;24.26;45.54;94925.63;6068596;28;104037;-76
2022/08/28 02:25:12;;;;;;;10.40;7.27;;;;;;;24.11;46.27;94927.72;6068635;28;104827;-76
2022/08/28 02:28:18;;;;;;;10.67;7.27;;;;;;;24.09;46.40;94926.50;6060069;28;103601;-76
2022/08/28 02:31:21;;;;;;;11.30;7.60;;;;;;;24.07;45.95;94926.03;6068789;28;104181;-76
2022/08/28 02:34:25;;;;;;;8.20;7.40;;;;;;;24.10;46.27;94928.06;6065194;28;103780;-76
2022/08/28 02:37:28;;;;;;;8.70;7.80;;;;;;;24.13;46.08;94927.41;6065434;28;104280;-77
2022/08/28 02:40:32;;;;;;;9.10;8.10;;;;;;;24.05;46.64;94929.03;6065277;28;104751;-76
2022/08/28 02:43:37;;;;;;;8.90;8.00;;;;;;;24.06;46.37;94927.13;6068787;28;106136;-76
2022/08/28 02:46:40;;;;;;;8.50;7.70;;;;;;;24.05;46.25;94925.56;6068756;28;105086;-77
2022/08/28 02:49:43;;;;;;;10.70;7.70;;;;;;;24.11;46.30;94926.94;6060237;28;103759;-77
2022/08/28 02:52:47;;;;;;;9.87;8.87;;;;;;;24.15;46.33;94934.00;6067201;28;103840;-76
2022/08/28 02:55:51;;;;;;;28.40;25.40;;;;;;;24.18;46.15;94929.91;6068208;28;105984;-76
2022/08/28 02:58:57;;;;;;;27.60;24.83;;;;;;;24.28;46.13;94929.53;6068221;28;105899;-77
2022/08/28 03:02:02;;;;;;;26.37;23.67;;;;;;;24.38;45.72;94931.88;6059633;28;106636;-77
2022/08/28 03:05:06;;;;;;;13.07;11.73;;;;;;;24.31;45.83;94936.91;6068025;28;105813;-76
2022/08/28 03:08:09;;;;;;;11.87;10.43;;;;;;;24.30;45.86;94935.34;6066505;28;103989;-77
2022/08/28 03:11:12;;;;;;;18.83;17.03;;;;;;;24.25;45.93;94930.19;6067212;28;105398;-76
2022/08/28 03:14:19;;;;;;;23.20;21.30;;;;;;;24.29;45.90;94931.09;6057857;28;103857;-75
2022/08/28 03:17:23;;;;;;;17.77;16.07;;;;;;;24.31;45.61;94942.25;6066774;28;106638;-77
2022/08/28 03:20:26;;;;;;;25.47;23.17;;;;;;;24.41;45.37;94944.59;6066677;28;103722;-76
2022/08/28 03:23:30;;;;;;;21.27;19.47;;;;;;;24.50;45.05;94939.97;6063073;28;103972;-76
2022/08/28 03:26:33;;;;;;;19.83;17.80;;;;;;;24.57;45.23;94952.06;6063690;28;104017;-76
2022/08/28 03:29:38;;;;;;;12.97;11.70;;;;;;;24.52;45.12;94949.56;6065894;28;104569;-77
2022/08/28 03:32:42;;;;;;;13.53;10.60;;;;;;;24.39;45.55;94944.13;6066605;28;103866;-76
2022/08/28 03:35:45;;;;;;;22.37;20.20;;;;;;;24.27;45.86;94951.25;6058723;28;104031;-77
2022/08/28 03:38:49;;;;;;;13.73;12.53;;;;;;;24.16;45.25;94950.81;6066433;28;103882;-77
2022/08/28 03:41:52;;;;;;;23.47;21.10;;;;;;;24.30;45.03;94953.28;6067181;28;104292;-76
2022/08/28 03:44:58;;;;;;;17.93;16.23;;;;;;;24.43;45.10;94946.94;6066544;28;105544;-76
2022/08/28 03:48:02;;;;;;;16.30;12.80;;;;;;;24.44;44.88;94957.31;6059409;28;104031;-77
2022/08/28 03:51:07;;;;;;;12.37;11.10;;;;;;;24.50;45.13;94968.59;6065656;28;104767;-76
2022/08/28 03:54:10;;;;;;;11.30;10.30;;;;;;;24.49;44.92;94961.69;6066353;28;106123;-76
2022/08/28 03:57:17;;;;;;;11.40;10.30;;;;;;;24.28;45.72;94964.31;6064004;28;105760;-77
2022/08/28 04:00:24;;;;;;;12.63;11.50;;;;;;;24.26;45.50;94969.19;6061059;28;103832;-76
2022/08/28 04:03:28;;;;;;;35.90;32.87;;;;;;;24.29;45.35;94968.56;6066033;28;103985;-76
2022/08/28 04:06:32;;;;;;;21.97;19.87;;;;;;;24.24;45.66;94973.31;6065844;28;103500;-76
2022/08/28 04:09:38;;;;;;;15.80;14.50;;;;;;;24.18;45.86;94973.47;6056433;28;106142;-76
2022/08/28 04:12:43;;;;;;;19.77;17.73;;;;;;;24.19;45.83;94974.25;6066232;28;107240;-76
2022/08/28 04:15:56;;;;;;;29.33;26.63;;;;;;;24.29;45.55;94978.47;6065491;28;103632;-76
2022/08/28 04:19:00;;;;;;;23.80;21.53;;;;;;;24.35;45.40;94980.63;6065810;28;105090;-76
2022/08/28 04:22:03;;;;;;;33.30;30.10;;;;;;;24.35;45.69;94988.66;6056450;28;104356;-77
2022/08/28 04:25:08;;;;;;;28.63;26.00;;;;;;;24.39;45.50;94991.50;6065870;28;107067;-75
2022/08/28 04:28:11;;;;;;;22.53;20.43;;;;;;;24.49;45.43;94993.78;6065689;28;103690;-76
2022/08/28 04:31:16;;;;;;;35.10;31.47;;;;;;;24.47;45.22;94991.44;6065104;28;104021;-77
2022/08/28 04:34:32;;;;;;;34.03;30.83;;;;;;;24.39;45.90;95002.97;6060655;28;104344;-77
2022/08/28 04:37:36;;;;;;;37.77;34.47;;;;;;;24.45;45.64;95003.56;6063748;28;103841;-76
2022/08/28 04:40:40;;;;;;;28.60;25.90;;;;;;;24.42;46.06;95007.69;6067310;28;106314;-76
2022/08/28 04:43:44;;;;;;;22.03;19.90;;;;;;;24.50;45.47;95012.19;6061526;28;104050;-77
2022/08/28 04:46:48;;;;;;;15.20;13.60;;;;;;;24.47;45.65;95018.19;6068795;28;104485;-76
2022/08/28 04:49:52;;;;;;;16.23;14.37;;;;;;;24.40;46.12;95019.81;6068545;28;103989;-76
2022/08/28 04:52:55;;;;;;;21.07;18.83;;;;;;;24.24;46.48;95019.56;6067662;28;103917;-76
2022/08/28 04:55:59;;;;;;;18.10;16.10;;;;;;;24.20;46.98;95007.94;6061335;28;104151;-76
2022/08/28 04:59:02;;;;;;;13.73;11.60;;;;;;;24.36;46.28;95010.84;6069007;28;104048;-76
2022/08/28 05:02:08;;;;;;;13.03;11.40;;;;;;;24.51;45.81;95012.97;6056207;28;104268;-76
2022/08/28 05:05:11;;;;;;;12.47;11.00;;;;;;;24.58;45.91;95017.84;6069203;28;104614;-76
2022/08/28 05:08:16;;;;;;;16.83;12.20;;;;;;;24.47;46.46;95020.09;6061968;28;104731;-76
2022/08/28 05:11:21;;;;;;;11.33;10.13;;;;;;;24.52;45.69;95019.09;6069490;28;106234;-75
2022/08/28 05:14:36;;;;;;;11.70;10.30;;;;;;;24.47;45.71;95020.88;6070585;28;102880;-76
2022/08/28 05:17:41;;;;;;;11.13;9.20;;;;;;;24.41;45.93;95014.13;6065864;28;103756;-76
2022/08/28 05:20:47;;;;;;;13.93;9.30;;;;;;;24.38;46.00;95017.47;6064835;28;105073;-75
2022/08/28 05:23:55;;;;;;;10.73;8.80;;;;;;;24.23;46.61;95027.88;6069423;28;103625;-76
2022/08/28 05:27:00;;;;;;;9.43;8.60;;;;;;;24.03;47.13;95029.38;6069378;28;103879;-76
2022/08/28 05:30:05;;;;;;;13.07;8.50;;;;;;;23.99;46.83;95025.72;6061985;28;105206;-76
2022/08/28 05:33:12;;;;;;;15.33;8.90;;;;;;;23.99;46.80;95031.06;6069380;28;104045;-75
2022/08/28 05:36:16;;;;;;;10.50;9.53;;;;;;;24.15;46.57;95029.47;6068781;28;103604;-75
2022/08/28 05:39:19;;;;;;;9.90;8.97;;;;;;;24.17;47.27;95024.59;6066703;28;103635;-76
2022/08/28 05:42:23;;;;;;;13.40;10.50;;;;;;;24.28;47.35;95036.53;6058675;28;103793;-75
2022/08/28 05:45:33;;;;;;;10.07;9.13;;;;;;;24.30;48.14;95039.66;6067414;28;104191;-76
2022/08/28 05:48:39;;;;;;;10.70;8.93;;;;;;;24.29;47.87;95048.78;6067553;28;104039;-76
2022/08/28 05:51:43;;;;;;;11.43;10.33;;;;;;;24.46;47.42;95048.72;6063352;28;105213;-75
2022/08/28 05:54:47;;;;;;;11.70;9.47;;;;;;;24.50;47.80;95036.28;6062353;28;103922;-75
2022/08/28 05:57:50;;;;;;;14.53;9.40;;;;;;;24.73;46.99;95044.09;6065071;28;103907;-75
2022/08/28 06:00:54;;;;;;;10.73;8.50;;;;;;;24.67;47.23;95045.31;6065068;28;104656;-75
2022/08/28 06:04:01;;;;;;;11.10;8.90;;;;;;;24.75;47.50;95047.22;6050410;28;104319;-74
2022/08/28 06:07:05;;;;;;;9.77;8.73;;;;;;;24.87;47.19;95041.97;6063801;28;106847;-75
2022/08/28 06:10:09;;;;;;;10.60;9.23;;;;;;;24.93;46.46;95046.03;6067008;28;105177;-74
2022/08/28 06:13:12;;;;;;;14.17;8.50;;;;;;;24.83;47.02;95041.03;6066675;28;107326;-76
2022/08/28 06:16:16;;;;;;;13.37;8.30;;;;;;;24.78;47.84;95033.97;6059574;28;103725;-74
2022/08/28 06:19:22;;;;;;;10.70;9.70;;;;;;;24.85;46.88;95040.69;6066826;28;104132;-73
2022/08/28 06:22:25;;;;;;;14.40;8.87;;;;;;;24.91;46.82;95045.56;6066837;28;104789;-76
2022/08/28 06:25:28;;;;;;;11.60;8.60;;;;;;;25.12;46.41;95039.47;6066375;28;105077;-76
2022/08/28 06:28:32;;;;;;;16.70;9.00;;;;;;;25.23;47.07;95037.97;6059088;28;107406;-76
2022/08/28 06:31:35;;;;;;;9.80;8.33;;;;;;;24.79;48.64;95042.78;6067114;28;103752;-75
2022/08/28 06:34:40;;;;;;;9.30;7.60;;;;;;;24.84;47.69;95052.53;6066987;28;104030;-76
2022/08/28 06:37:44;;;;;;;10.10;7.97;;;;;;;24.94;48.00;95044.91;6018731;28;1303475;-75
2022/08/28 06:40:51;;;;;;;9.27;7.97;;;;;;;24.99;47.97;95044.72;6064632;28;104070;-76
2022/08/28 06:43:56;;;;;;;10.37;7.50;;;;;;;25.19;47.54;95050.44;6068277;28;103475;-75
2022/08/28 06:46:59;;;;;;;9.13;7.43;;;;;;;25.32;47.54;95046.72;6067965;28;105022;-75
2022/08/28 06:50:04;;;;;;;11.20;7.87;;;;;;;25.32;47.28;95042.16;6060621;28;103949;-74
2022/08/28 06:53:08;;;;;;;11.10;8.30;;;;;;;25.09;47.39;95043.56;6067494;28;104032;-76
2022/08/28 06:56:16;;;;;;;13.37;8.13;;;;;;;25.06;47.67;95042.34;6065862;28;106819;-74
2022/08/28 06:59:29;;;;;;;9.30;7.27;;;;;;;25.32;48.15;95050.19;6067712;28;103500;-74
2022/08/28 07:02:32;;;;;;;8.93;8.03;;;;;;;25.36;47.96;95047.66;6056661;28;104143;-75
2022/08/28 07:05:37;;;;;;;9.30;8.07;;;;;;;25.44;46.42;95043.38;6066493;28;104095;-73
2022/08/28 07:08:40;;;;;;;12.77;7.23;;;;;;;25.51;46.13;95046.28;6067085;28;103629;-73
2022/08/28 07:11:45;;;;;;;10.77;7.87;;;;;;;25.62;47.66;95040.22;6063249;28;105089;-73
2022/08/28 07:14:48;;;;;;;8.60;7.63;;;;;;;25.71;47.79;95045.53;6061587;28;103660;-74
2022/08/28 07:17:51;;;;;;;9.23;7.33;;;;;;;25.67;46.41;95044.59;6066923;28;106693;-73
2022/08/28 07:20:59;;;;;;;12.57;8.23;;;;;;;25.80;47.73;95040.84;6066687;28;104205;-73
2022/08/28 07:24:03;;;;;;;9.90;8.40;;;;;;;25.76;45.93;95039.16;6060085;28;102820;-72
2022/08/28 07:27:07;;;;;;;13.00;10.60;;;;;;;25.62;45.98;95034.84;6066020;28;104013;-73
2022/08/28 07:30:12;;;;;;;10.60;9.50;;;;;;;25.59;45.97;95043.56;6066795;28;107294;-73
2022/08/28 07:33:15;;;;;;;10.27;7.80;;;;;;;25.65;46.11;95039.56;6065293;28;104350;-75
2022/08/28 07:36:22;;;;;;;16.40;7.97;;;;;;;25.71;45.48;95042.84;6057637;28;104122;-75
2022/08/28 07:39:31;;;;;;;10.43;7.97;;;;;;;25.98;44.88;95028.06;6067556;28;106137;-74
2022/08/28 07:45:58;;;;;;;16.70;8.50;;;;;;;26.06;45.38;95032.59;6073562;23;104105;-64
2022/08/28 07:49:02;;;;;;;13.37;8.03;;;;;;;25.96;44.97;95027.59;6069436;28;103695;-66
2022/08/28 07:52:10;;;;;;;12.50;8.80;;;;;;;25.86;45.21;95023.44;6086164;28;103647;-65
2022/08/28 07:55:15;;;;;;;9.97;7.83;;;;;;;25.97;45.28;95018.44;6087364;28;103466;-65
2022/08/28 07:58:18;;;;;;;11.03;6.93;;;;;;;26.12;45.16;95020.53;6075762;28;104523;-67
2022/08/28 08:01:21;;;;;;;12.17;8.70;;;;;;;26.38;46.32;95019.44;6087047;28;103821;-70
2022/08/28 08:04:25;;;;;;;11.97;8.20;;;;;;;26.32;45.36;95023.47;6086863;28;103954;-67
2022/08/28 08:07:31;;;;;;;11.50;8.27;;;;;;;26.03;43.98;95022.50;6087586;28;106607;-65
2022/08/28 08:10:35;;;;;;;13.30;8.20;;;;;;;25.85;43.77;95016.50;6076082;28;104055;-67
2022/08/28 08:13:40;;;;;;;10.33;8.43;;;;;;;25.78;44.17;95010.91;6089521;28;103715;-70
2022/08/28 08:16:46;;;;;;;17.50;7.80;;;;;;;25.81;42.97;95020.19;6092824;28;103520;-69
2022/08/28 08:19:49;;;;;;;12.37;7.20;;;;;;;25.98;43.69;95015.44;6091481;28;103052;-70
2022/08/28 08:22:55;;;;;;;8.63;7.00;;;;;;;26.14;43.05;95018.28;6086677;28;104669;-69
2022/08/28 08:26:02;;;;;;;12.00;7.90;;;;;;;26.24;43.10;95004.47;6092351;28;104093;-69
2022/08/28 08:29:06;;;;;;;10.90;8.13;;;;;;;26.54;43.70;95012.31;6093211;28;103764;-69
2022/08/28 08:32:12;;;;;;;9.43;6.93;;;;;;;26.62;43.42;95016.78;6067430;28;105255;-70
2022/08/28 08:35:16;;;;;;;11.20;8.50;;;;;;;26.68;43.44;95018.16;6092600;28;104580;-70
2022/08/28 08:38:22;;;;;;;8.60;7.80;;;;;;;26.67;43.04;95013.91;6092901;28;103720;-71
2022/08/28 08:41:29;;;;;;;10.03;8.10;;;;;;;26.79;43.00;95010.44;6093301;28;106051;-70
2022/08/28 08:44:36;;;;;;;10.73;8.80;;;;;;;26.90;41.93;95005.41;6083153;28;102972;-69
2022/08/28 08:47:50;;;;;;;14.43;11.90;;;;;;;26.62;43.13;95003.38;6093133;28;105831;-70
2022/08/28 08:50:55;;;;;;;17.40;12.20;;;;;;;26.40;42.97;95004.59;6091853;28;103634;-70
2022/08/28 08:54:06;;;;;;;47.23;29.00;;;;;;;26.34;43.37;94999.75;6086846;28;103624;-69
2022/08/28 08:57:11;;;;;;;43.03;29.73;;;;;;;26.31;43.04;95001.22;6085433;28;103639;-70
2022/08/28 09:22:54;;;;;;;16.43;12.20;;;;;;;26.38;42.19;94998.78;6270207;22;103340;-70
2022/08/28 09:25:59;;;;;;;13.83;11.13;;;;;;;26.72;42.75;94996.81;6244097;27;103584;-69
2022/08/28 09:29:07;;;;;;;12.90;9.90;;;;;;;27.05;42.23;94985.88;6248251;27;103128;-70
2022/08/28 09:32:22;;;;;;;13.70;9.90;;;;;;;27.17;43.01;94988.56;6249745;27;104169;-70
2022/08/28 09:35:27;;;;;;;12.13;10.47;;;;;;;27.07;43.77;94986.38;6256156;27;102925;-70
2022/08/28 09:38:32;;;;;;;13.30;10.57;;;;;;;26.91;43.88;94988.19;6245655;27;103898;-69
2022/08/28 09:45:05;;;;;;;23.10;10.03;;;;;;;26.68;42.78;94988.63;6253983;27;103072;-71
2022/08/28 09:48:22;;;;;;;17.47;10.03;;;;;;;26.64;41.80;94981.59;6247829;27;104553;-70
2022/08/28 09:51:30;;;;;;;13.97;9.53;;;;;;;26.61;40.74;94976.88;6251782;27;103364;-70
2022/08/28 09:54:40;;;;;;;17.70;8.90;;;;;;;26.65;39.81;94978.56;6255065;27;103161;-71
2022/08/28 09:57:46;;;;;;;11.43;8.03;;;;;;;26.66;39.94;94972.06;6255812;27;103087;-69
2022/08/28 10:00:55;;;;;;;11.73;8.17;;;;;;;26.64;39.44;94966.25;6245504;27;103095;-71
2022/08/28 10:04:14;;;;;;;11.17;7.77;;;;;;;26.74;39.05;94971.19;6255682;27;102811;-70
2022/08/28 10:07:27;;;;;;;10.50;7.70;;;;;;;26.82;38.93;94962.22;6254273;27;103094;-66
2022/08/28 10:10:38;;;;;;;14.40;8.87;;;;;;;26.90;39.46;94957.06;6252330;27;104455;-65
2022/08/28 10:13:53;;;;;;;15.57;8.60;;;;;;;26.92;39.77;94954.81;6249856;27;103805;-66
2022/08/28 10:17:06;;;;;;;12.00;8.47;;;;;;;26.94;39.76;94949.91;6251503;27;103056;-67
2022/08/28 10:20:16;;;;;;;10.63;7.80;;;;;;;26.83;40.95;94954.94;6256454;27;103460;-67
2022/08/28 10:23:31;;;;;;;14.03;8.53;;;;;;;26.79;40.33;94944.09;6230464;27;104232;-66
2022/08/28 10:26:43;;;;;;;11.30;7.63;;;;;;;26.79;38.31;94948.69;6237160;28;103251;-66
2022/08/28 10:29:53;;;;;;;9.37;8.40;;;;;;;26.78;38.98;94944.44;6236833;28;104044;-68
2022/08/28 10:33:11;;;;;;;12.03;8.90;;;;;;;26.77;38.53;94932.91;6235797;28;104051;-67
2022/08/28 10:36:19;;;;;;;10.60;8.50;;;;;;;26.81;39.18;94943.75;6227062;28;103636;-63
2022/08/28 10:39:47;;;;;;;12.87;10.10;;;;;;;26.85;38.84;94942.75;6232576;27;103101;-63
2022/08/28 10:43:00;;;;;;;10.83;9.87;;;;;;;26.85;39.12;94939.28;6234778;28;103039;-62
2022/08/28 10:46:05;;;;;;;13.50;9.70;;;;;;;26.84;39.30;94935.81;6220344;28;104312;-64
2022/08/28 10:49:16;;;;;;;13.73;9.53;;;;;;;26.78;38.16;94937.16;6222551;28;103384;-66
2022/08/28 10:52:24;;;;;;;15.83;8.57;;;;;;;26.78;37.04;94934.47;6238831;28;103346;-66
2022/08/28 10:55:35;;;;;;;9.60;8.70;;;;;;;26.75;36.36;94929.00;6238889;28;104076;-65
2022/08/28 10:58:40;;;;;;;12.13;9.17;;;;;;;26.73;36.38;94932.03;6217381;28;104655;-65
2022/08/28 11:01:46;;;;;;;12.50;8.07;;;;;;;26.75;35.57;94927.09;6238774;28;104258;-65
2022/08/28 11:04:49;;;;;;;8.77;7.87;;;;;;;26.75;36.00;94924.44;6237822;28;103185;-65
2022/08/28 11:08:00;;;;;;;12.30;8.93;;;;;;;26.74;36.17;94917.50;6233530;28;104230;-65
2022/08/28 11:11:07;;;;;;;9.93;9.03;;;;;;;26.72;36.64;94924.31;6232610;28;103724;-65
2022/08/28 11:14:23;;;;;;;10.40;8.13;;;;;;;26.74;36.68;94927.44;6237831;28;103279;-64
2022/08/28 11:17:41;;;;;;;8.57;7.83;;;;;;;26.72;37.35;94911.69;6237894;28;103065;-65
2022/08/28 11:20:56;;;;;;;9.20;8.20;;;;;;;26.73;36.99;94910.56;6227391;28;103249;-65
2022/08/28 11:24:05;;;;;;;9.57;8.67;;;;;;;26.77;36.84;94914.13;6236491;28;104108;-65
2022/08/28 11:27:20;;;;;;;9.30;8.30;;;;;;;26.82;36.42;94916.56;6237461;28;103288;-65
2022/08/28 11:30:32;;;;;;;9.93;9.00;;;;;;;26.79;37.46;94913.78;6232678;28;103133;-64
2022/08/28 11:33:40;;;;;;;12.30;8.40;;;;;;;26.85;36.96;94907.03;6231026;27;103014;-65
2022/08/28 11:37:00;;;;;;;10.50;8.40;;;;;;;27.05;37.07;94913.38;6238494;28;103354;-66
2022/08/28 11:40:17;;;;;;;10.23;8.07;;;;;;;27.14;36.80;94904.06;6236293;28;103190;-66
2022/08/28 11:43:36;;;;;;;10.77;8.60;;;;;;;27.16;36.70;94904.50;6227487;27;105760;-65
2022/08/28 11:46:43;;;;;;;9.30;8.40;;;;;;;27.26;36.89;94899.78;6237888;28;103299;-66
2022/08/28 11:49:46;;;;;;;13.00;8.80;;;;;;;27.22;36.92;94902.38;6228796;27;103350;-66
2022/08/28 11:53:44;;;;;;;12.53;8.97;;;;;;;27.09;38.12;94895.47;6217010;28;104037;-66
2022/08/28 11:57:00;;;;;;;12.20;8.57;;;;;;;26.99;38.01;94895.94;6187590;22;103160;-66
2022/08/28 12:00:10;;;;;;;9.60;8.80;;;;;;;27.05;37.63;94891.88;6206956;28;102946;-66
2022/08/28 12:03:16;;;;;;;9.10;8.40;;;;;;;27.10;35.94;94887.06;6209466;28;105832;-65
2022/08/28 12:07:00;;;;;;;9.33;8.40;;;;;;;27.11;36.21;94890.53;6197735;28;104017;-65
2022/08/28 12:10:45;;;;;;;10.00;9.17;;;;;;;27.03;36.79;94880.69;6193236;28;103293;-65
2022/08/28 12:13:51;;;;;;;9.50;8.57;;;;;;;27.06;35.72;94880.81;6170851;28;103094;-66
2022/08/28 12:17:17;;;;;;;10.57;7.67;;;;;;;27.03;33.11;94880.69;6151489;28;103543;-65
2022/08/28 12:20:28;;;;;;;7.43;6.80;;;;;;;27.10;31.72;94886.28;6188104;28;102978;-65
2022/08/28 12:23:44;;;;;;;9.10;7.20;;;;;;;27.17;31.94;94878.41;6161864;28;106128;-65
2022/08/28 12:26:53;;;;;;;8.80;7.00;;;;;;;27.07;31.35;94876.22;6163602;28;103094;-66
2022/08/28 12:30:02;;;;;;;8.20;7.40;;;;;;;27.09;32.90;94873.97;6175142;28;104777;-66
2022/08/28 12:33:14;;;;;;;14.13;8.30;;;;;;;27.21;33.21;94873.91;6184874;28;103174;-66
2022/08/28 12:36:25;;;;;;;7.93;7.13;;;;;;;27.10;33.97;94870.94;6184599;28;102889;-65
2022/08/28 12:39:30;;;;;;;12.10;7.80;;;;;;;27.03;34.51;94869.94;6175352;28;103228;-64
2022/08/28 12:42:38;;;;;;;8.63;7.93;;;;;;;26.99;34.88;94864.50;6161192;28;104777;-65
2022/08/28 12:45:49;;;;;;;8.57;7.97;;;;;;;27.02;34.46;94873.75;6175310;28;103398;-65
2022/08/28 12:48:55;;;;;;;12.03;8.40;;;;;;;27.01;34.87;94870.28;6174210;28;103922;-65
2022/08/28 12:52:10;;;;;;;11.10;10.20;;;;;;;26.97;35.70;94865.94;6171822;28;103276;-65
2022/08/28 12:55:20;;;;;;;12.10;10.50;;;;;;;26.96;36.05;94865.19;6182758;28;103047;-65
2022/08/28 12:58:31;;;;;;;11.83;10.63;;;;;;;26.97;36.39;94861.38;6185329;28;103513;-65
2022/08/28 13:01:37;;;;;;;12.07;10.90;;;;;;;26.98;35.91;94862.16;6203772;28;103090;-65
2022/08/28 13:04:45;;;;;;;11.83;10.77;;;;;;;27.00;36.58;94859.91;6170469;28;103525;-65
2022/08/28 13:07:51;;;;;;;11.30;10.30;;;;;;;26.98;36.18;94857.56;6177525;28;103137;-65
2022/08/28 13:10:54;;;;;;;11.33;10.27;;;;;;;27.00;36.60;94859.91;6189207;28;103029;-65
2022/08/28 13:13:58;;;;;;;12.83;10.53;;;;;;;26.99;36.83;94852.97;6187681;28;104668;-67
2022/08/28 13:17:03;;;;;;;13.07;11.87;;;;;;;27.01;34.90;94856.09;6175855;28;104099;-68
2022/08/28 13:20:07;;;;;;;12.43;7.67;;;;;;;27.25;30.07;94849.84;6167193;28;103381;-69
2022/08/28 13:23:28;;;;;;;7.60;6.80;;;;;;;27.40;29.79;94846.44;6184444;28;102951;-66
2022/08/28 13:26:35;;;;;;;9.77;7.07;;;;;;;27.20;31.05;94844.69;6165014;28;102963;-65
2022/08/28 13:29:50;;;;;;;9.33;7.50;;;;;;;27.16;31.82;94837.31;6187706;28;103998;-65
2022/08/28 13:33:03;;;;;;;9.27;7.80;;;;;;;27.23;31.64;94852.09;6170055;28;103274;-65
2022/08/28 13:36:20;;;;;;;7.60;6.87;;;;;;;27.16;33.08;94858.03;6161107;28;103369;-65
2022/08/28 13:39:24;;;;;;;7.90;7.10;;;;;;;27.09;33.09;94853.25;6153978;28;103240;-64
2022/08/28 13:42:27;;;;;;;26.00;23.80;;;;;;;27.09;35.58;94853.25;6179221;28;103675;-69
2022/08/28 13:45:31;;;;;;;19.63;17.73;;;;;;;27.10;33.08;94843.31;6169274;28;103310;-67
2022/08/28 13:48:45;;;;;;;12.63;11.47;;;;;;;27.25;33.24;94844.47;6166398;28;103123;-66
2022/08/28 13:51:49;;;;;;;12.47;11.13;;;;;;;27.12;33.05;94841.84;6160747;28;104942;-65
2022/08/28 13:54:53;;;;;;;12.83;11.60;;;;;;;27.08;33.76;94840.19;6169638;28;104250;-66
2022/08/28 13:57:57;;;;;;;12.10;9.23;;;;;;;27.09;33.40;94831.78;6174844;28;103152;-66
2022/08/28 14:01:01;;;;;;;9.53;8.60;;;;;;;27.07;33.22;94834.03;6178972;28;104359;-66
2022/08/28 14:04:04;;;;;;;11.53;10.27;;;;;;;27.08;34.03;94829.44;6177560;28;102909;-65
2022/08/28 14:07:08;;;;;;;9.30;7.90;;;;;;;27.23;32.06;94830.59;6180271;28;103218;-67
2022/08/28 14:10:11;;;;;;;11.40;7.60;;;;;;;27.52;31.73;94832.91;6165889;28;103056;-64
2022/08/28 14:13:15;;;;;;;10.50;8.60;;;;;;;27.39;32.47;94826.84;6177968;28;103273;-66
2022/08/28 14:16:18;;;;;;;10.43;7.60;;;;;;;27.58;32.14;94825.38;6187687;28;102844;-66
2022/08/28 14:19:23;;;;;;;7.97;7.13;;;;;;;27.64;32.10;94826.69;6190754;28;103349;-65
2022/08/28 14:22:26;;;;;;;10.27;7.17;;;;;;;27.61;30.45;94824.69;6185436;28;103313;-65
2022/08/28 14:25:29;;;;;;;11.10;7.50;;;;;;;27.42;31.50;94823.47;6177267;28;103486;-66
2022/08/28 14:28:35;;;;;;;10.93;8.37;;;;;;;27.31;33.74;94822.41;6186155;28;103368;-65
2022/08/28 14:31:39;;;;;;;11.40;7.93;;;;;;;27.32;33.75;94823.16;6174686;28;103612;-66
2022/08/28 14:34:46;;;;;;;11.57;8.03;;;;;;;27.32;32.53;94823.16;6165955;28;104004;-65
2022/08/28 14:37:49;;;;;;;9.73;7.30;;;;;;;27.41;32.00;94821.91;6181406;28;104097;-66
2022/08/28 14:40:52;;;;;;;8.93;7.70;;;;;;;27.40;32.06;94812.28;6186322;28;102950;-65
2022/08/28 14:43:58;;;;;;;8.10;6.90;;;;;;;27.48;31.10;94820.50;6188609;28;105386;-65
2022/08/28 14:47:01;;;;;;;8.67;6.83;;;;;;;27.62;29.52;94815.50;6177945;28;106148;-65
2022/08/28 14:50:06;;;;;;;10.10;6.77;;;;;;;27.62;29.82;94815.50;6188968;28;103282;-65
2022/08/28 14:53:10;;;;;;;8.80;5.83;;;;;;;27.68;29.13;94814.88;6167711;28;102742;-64